createdAt,value
2023-01-20T00:00:49.004Z,400.82
2023-01-20T00:01:48.976Z,401.26
2023-01-20T00:02:48.997Z,401.49
2023-01-20T00:03:49.075Z,403
2023-01-20T00:04:48.975Z,402.93
2023-01-20T00:05:49.033Z,403.45
2023-01-20T00:06:48.991Z,403.67
2023-01-20T00:07:48.989Z,403.38
2023-01-20T00:08:48.988Z,403.6
2023-01-20T00:09:52.049Z,404.09
2023-01-20T00:10:48.992Z,403.83
2023-01-20T00:11:48.999Z,403.93
2023-01-20T00:12:48.997Z,403.05
2023-01-20T00:13:49.000Z,403.24
2023-01-20T00:14:48.999Z,402.84
2023-01-20T00:15:49.020Z,402.71
2023-01-20T00:16:49.003Z,402.33
2023-01-20T00:17:49.007Z,401.69
2023-01-20T00:18:49.008Z,401.5
2023-01-20T00:19:51.772Z,401.34
2023-01-20T00:20:49.009Z,401.83
2023-01-20T00:21:50.057Z,402.43
2023-01-20T00:22:49.010Z,403.34
2023-01-20T00:23:49.019Z,403.51
2023-01-20T00:24:49.006Z,403.98
2023-01-20T00:25:49.015Z,404.2
2023-01-20T00:26:49.015Z,404.61
2023-01-20T00:27:49.015Z,404.21
2023-01-20T00:28:49.029Z,404.82
2023-01-20T00:29:49.030Z,405.48
2023-01-20T00:30:49.069Z,405.47
2023-01-20T00:31:49.022Z,405.31
2023-01-20T00:32:49.027Z,405.31
2023-01-20T00:33:49.036Z,404.48
2023-01-20T00:34:49.024Z,405.78
2023-01-20T00:35:49.025Z,405.54
2023-01-20T00:36:49.030Z,405.81
2023-01-20T00:37:49.055Z,406.24
2023-01-20T00:38:49.051Z,406.82
2023-01-20T00:39:49.035Z,406.41
2023-01-20T00:40:49.036Z,406.4
2023-01-20T00:41:52.053Z,405.59
2023-01-20T00:42:49.039Z,405.17
2023-01-20T00:43:49.061Z,405
2023-01-20T00:44:49.037Z,404.32
2023-01-20T00:45:49.050Z,404.37
2023-01-20T00:46:49.101Z,404.62
2023-01-20T00:47:49.057Z,403.78
2023-01-20T00:48:49.062Z,403.95
2023-01-20T00:49:49.047Z,404.19
2023-01-20T00:50:49.053Z,405.5
2023-01-20T00:51:49.131Z,405.33
2023-01-20T00:52:49.090Z,405.36
2023-01-20T00:53:49.082Z,404.93
2023-01-20T00:54:49.056Z,404.98
2023-01-20T00:55:49.064Z,405.59
2023-01-20T00:56:49.076Z,405.81
2023-01-20T00:57:51.822Z,406.48
2023-01-20T00:58:49.068Z,407.77
2023-01-20T00:59:49.074Z,407.74
2023-01-20T01:00:49.074Z,407.94
2023-01-20T01:01:49.225Z,408.83
2023-01-20T01:02:49.073Z,407.76
2023-01-20T01:03:49.069Z,408.42
2023-01-20T01:04:49.069Z,409.26
2023-01-20T01:05:49.084Z,409.71
2023-01-20T01:06:49.081Z,408.42
2023-01-20T01:07:49.087Z,408.46
2023-01-20T01:08:49.080Z,408.43
2023-01-20T01:09:49.121Z,408.72
2023-01-20T01:10:49.087Z,409.97
2023-01-20T01:11:49.090Z,409.99
2023-01-20T01:12:49.085Z,410.88
2023-01-20T01:13:49.095Z,410.72
2023-01-20T01:14:49.094Z,410.7
2023-01-20T01:15:49.095Z,410.53
2023-01-20T01:16:49.097Z,410.53
2023-01-20T01:17:49.097Z,410.13
2023-01-20T01:18:49.095Z,410.35
2023-01-20T01:19:49.104Z,410.79
2023-01-20T01:20:49.103Z,410.41
2023-01-20T01:21:49.096Z,411.29
2023-01-20T01:22:49.101Z,411.74
2023-01-20T01:23:49.207Z,411.71
2023-01-20T01:24:49.106Z,411.52
2023-01-20T01:25:49.137Z,411.54
2023-01-20T01:26:49.103Z,412.13
2023-01-20T01:27:49.126Z,412.8
2023-01-20T01:28:49.109Z,412.57
2023-01-20T01:29:49.111Z,412.18
2023-01-20T01:30:49.181Z,413.26
2023-01-20T01:31:49.173Z,413.47
2023-01-20T01:32:49.144Z,413.27
2023-01-20T01:33:49.115Z,413.3
2023-01-20T01:34:49.123Z,413.86
2023-01-20T01:35:49.128Z,413.3
2023-01-20T01:36:49.127Z,412.79
2023-01-20T01:37:49.121Z,412.9
2023-01-20T01:38:56.965Z,413.27
2023-01-20T01:39:49.125Z,413.92
2023-01-20T01:40:49.137Z,413.3
2023-01-20T01:41:49.161Z,413
2023-01-20T01:42:49.131Z,413.48
2023-01-20T01:43:49.160Z,413.25
2023-01-20T01:44:49.137Z,413.08
2023-01-20T01:45:49.186Z,412.46
2023-01-20T01:46:49.135Z,412.47
2023-01-20T01:47:58.187Z,412.27
2023-01-20T01:48:49.141Z,412.33
2023-01-20T01:49:49.144Z,412.29
2023-01-20T01:50:49.140Z,411.85
2023-01-20T01:51:49.145Z,412.38
2023-01-20T01:52:49.156Z,412.12
2023-01-20T01:53:49.177Z,411.91
2023-01-20T01:54:49.169Z,412.54
2023-01-20T01:55:49.153Z,412.16
2023-01-20T01:56:49.155Z,412.98
2023-01-20T01:57:49.186Z,412.59
2023-01-20T01:58:49.187Z,412.76
2023-01-20T01:59:49.166Z,413.46
2023-01-20T02:00:49.209Z,413.87
2023-01-20T02:01:49.234Z,413.51
2023-01-20T02:02:49.174Z,413.25
2023-01-20T02:03:52.230Z,412.85
2023-01-20T02:04:49.176Z,412.66
2023-01-20T02:05:49.175Z,412.06
2023-01-20T02:06:49.176Z,412.27
2023-01-20T02:07:49.177Z,411.88
2023-01-20T02:08:49.181Z,411.9
2023-01-20T02:09:49.177Z,411.44
2023-01-20T02:10:49.179Z,411.61
2023-01-20T02:11:49.176Z,410.75
2023-01-20T02:12:49.186Z,411.03
2023-01-20T02:13:49.208Z,411.27
2023-01-20T02:14:52.274Z,411.96
2023-01-20T02:15:49.179Z,411.68
2023-01-20T02:16:49.189Z,412.33
2023-01-20T02:17:49.191Z,411.63
2023-01-20T02:18:49.193Z,412.23
2023-01-20T02:19:49.199Z,411.6
2023-01-20T02:20:49.217Z,411.54
2023-01-20T02:21:49.196Z,412.53
2023-01-20T02:22:49.196Z,412.71
2023-01-20T02:23:49.194Z,411.82
2023-01-20T02:24:49.201Z,412.54
2023-01-20T02:25:52.291Z,412.08
2023-01-20T02:26:49.206Z,411.66
2023-01-20T02:27:49.208Z,412.16
2023-01-20T02:28:49.214Z,411.91
2023-01-20T02:29:49.233Z,412.72
2023-01-20T02:30:49.259Z,412.33
2023-01-20T02:31:49.253Z,412.29
2023-01-20T02:32:49.215Z,411.73
2023-01-20T02:33:49.216Z,412.41
2023-01-20T02:34:49.211Z,411.49
2023-01-20T02:35:49.217Z,411.36
2023-01-20T02:36:52.034Z,411.94
2023-01-20T02:37:49.234Z,411.14
2023-01-20T02:38:49.222Z,411.08
2023-01-20T02:39:49.244Z,410.28
2023-01-20T02:40:49.223Z,410.11
2023-01-20T02:41:49.234Z,409.67
2023-01-20T02:42:49.231Z,409.02
2023-01-20T02:43:49.231Z,408.84
2023-01-20T02:44:49.242Z,409.04
2023-01-20T02:45:49.285Z,408.9
2023-01-20T02:46:49.239Z,408.22
2023-01-20T02:47:50.775Z,407.63
2023-01-20T02:48:49.233Z,407.66
2023-01-20T02:49:49.240Z,407.15
2023-01-20T02:50:49.236Z,407.27
2023-01-20T02:51:49.250Z,406.96
2023-01-20T02:52:49.241Z,407.66
2023-01-20T02:53:49.249Z,407.84
2023-01-20T02:54:49.249Z,407.94
2023-01-20T02:55:49.252Z,408.74
2023-01-20T02:56:49.256Z,408.74
2023-01-20T02:57:49.252Z,408.45
2023-01-20T02:58:49.248Z,409.08
2023-01-20T02:59:49.253Z,408.67
2023-01-20T03:00:49.299Z,407.86
2023-01-20T03:01:49.449Z,407.67
2023-01-20T03:02:49.257Z,408.57
2023-01-20T03:03:49.323Z,407.4
2023-01-20T03:04:49.261Z,406.97
2023-01-20T03:05:49.320Z,407.01
2023-01-20T03:06:49.272Z,406.36
2023-01-20T03:07:52.031Z,407.25
2023-01-20T03:08:52.369Z,406.31
2023-01-20T03:09:49.275Z,405.5
2023-01-20T03:10:49.279Z,406.39
2023-01-20T03:11:49.291Z,405.81
2023-01-20T03:12:49.270Z,404.78
2023-01-20T03:13:49.278Z,405.37
2023-01-20T03:14:49.293Z,404.63
2023-01-20T03:15:49.276Z,404.05
2023-01-20T03:16:49.292Z,404.95
2023-01-20T03:17:49.310Z,404.5
2023-01-20T03:18:49.459Z,404.56
2023-01-20T03:19:49.283Z,404.74
2023-01-20T03:20:49.301Z,404.11
2023-01-20T03:21:49.287Z,403.14
2023-01-20T03:22:49.292Z,403.33
2023-01-20T03:23:49.287Z,401.97
2023-01-20T03:24:49.303Z,401.39
2023-01-20T03:25:49.299Z,401.17
2023-01-20T03:26:49.302Z,401.22
2023-01-20T03:27:49.305Z,400.59
2023-01-20T03:28:49.313Z,400.6
2023-01-20T03:29:49.307Z,400.56
2023-01-20T03:30:49.347Z,401.07
2023-01-20T03:31:49.338Z,400.14
2023-01-20T03:32:49.317Z,399.81
2023-01-20T03:33:49.332Z,399.55
2023-01-20T03:34:49.322Z,399.39
2023-01-20T03:35:49.308Z,398.47
2023-01-20T03:36:49.320Z,397.87
2023-01-20T03:37:49.313Z,396.6
2023-01-20T03:38:49.317Z,396.18
2023-01-20T03:39:49.329Z,396.06
2023-01-20T03:40:49.317Z,395.15
2023-01-20T03:41:49.319Z,394.76
2023-01-20T03:42:49.336Z,395.45
2023-01-20T03:43:49.330Z,394.78
2023-01-20T03:44:49.329Z,393.67
2023-01-20T03:45:49.344Z,393.18
2023-01-20T03:46:49.330Z,392.12
2023-01-20T03:47:49.347Z,391.64
2023-01-20T03:48:49.345Z,389.57
2023-01-20T03:49:49.356Z,388.47
2023-01-20T03:50:49.402Z,388.8
2023-01-20T03:51:49.340Z,388.06
2023-01-20T03:52:49.341Z,387.04
2023-01-20T03:53:49.342Z,387.13
2023-01-20T03:54:49.340Z,386.25
2023-01-20T03:55:49.337Z,385.33
2023-01-20T03:56:49.348Z,385.14
2023-01-20T03:57:49.347Z,383.3
2023-01-20T03:58:49.363Z,382.68
2023-01-20T03:59:49.355Z,379.4
2023-01-20T04:00:49.347Z,379.03
2023-01-20T04:01:49.569Z,377.09
2023-01-20T04:02:49.360Z,375.61
2023-01-20T04:03:49.359Z,374.54
2023-01-20T04:04:49.354Z,373.89
2023-01-20T04:05:49.389Z,372.87
2023-01-20T04:06:49.355Z,372.46
2023-01-20T04:07:49.367Z,372.03
2023-01-20T04:08:49.365Z,371.83
2023-01-20T04:09:49.381Z,370.31
2023-01-20T04:10:49.373Z,369.73
2023-01-20T04:11:49.370Z,369.94
2023-01-20T04:12:49.370Z,368.85
2023-01-20T04:13:49.381Z,369.09
2023-01-20T04:14:49.398Z,368.96
2023-01-20T04:15:49.416Z,368.49
2023-01-20T04:16:49.383Z,368.26
2023-01-20T04:17:49.390Z,369.19
2023-01-20T04:18:49.375Z,368.96
2023-01-20T04:19:49.415Z,368.35
2023-01-20T04:20:49.388Z,369.32
2023-01-20T04:21:49.412Z,369.36
2023-01-20T04:22:49.384Z,369.39
2023-01-20T04:23:49.385Z,369.9
2023-01-20T04:24:49.403Z,369.94
2023-01-20T04:25:49.402Z,369.06
2023-01-20T04:26:49.386Z,369.29
2023-01-20T04:27:49.408Z,370.45
2023-01-20T04:28:49.390Z,369.53
2023-01-20T04:29:49.430Z,369.62
2023-01-20T04:30:52.632Z,369.41
2023-01-20T04:31:49.495Z,368.81
2023-01-20T04:32:49.404Z,368.3
2023-01-20T04:33:49.417Z,367.91
2023-01-20T04:34:49.431Z,367.31
2023-01-20T04:35:49.400Z,365.99
2023-01-20T04:36:49.422Z,365.14
2023-01-20T04:37:49.433Z,363.64
2023-01-20T04:38:49.413Z,362.55
2023-01-20T04:39:49.436Z,362.15
2023-01-20T04:40:49.412Z,361.58
2023-01-20T04:41:52.237Z,360.68
2023-01-20T04:42:49.421Z,361.31
2023-01-20T04:43:49.426Z,360.86
2023-01-20T04:44:49.445Z,360.2
2023-01-20T04:45:49.415Z,360.88
2023-01-20T04:46:49.440Z,360.83
2023-01-20T04:47:49.458Z,361.07
2023-01-20T04:48:49.426Z,361.3
2023-01-20T04:49:49.441Z,361.6
2023-01-20T04:50:49.441Z,361.38
2023-01-20T04:51:49.428Z,360.51
2023-01-20T04:52:52.483Z,361
2023-01-20T04:53:49.443Z,360.37
2023-01-20T04:54:49.462Z,360.81
2023-01-20T04:55:49.434Z,360.64
2023-01-20T04:56:49.458Z,360.86
2023-01-20T04:57:49.437Z,360.15
2023-01-20T04:58:49.447Z,360.68
2023-01-20T04:59:49.461Z,361.94
2023-01-20T05:00:49.443Z,362.35
2023-01-20T05:01:49.596Z,362.4
2023-01-20T05:02:49.558Z,362.61
2023-01-20T05:03:52.526Z,362.84
2023-01-20T05:04:49.466Z,363.09
2023-01-20T05:05:49.457Z,361.92
2023-01-20T05:06:49.461Z,361.76
2023-01-20T05:07:49.449Z,360.71
2023-01-20T05:08:49.487Z,359.69
2023-01-20T05:09:49.485Z,359.46
2023-01-20T05:10:49.476Z,359.08
2023-01-20T05:11:49.470Z,358.69
2023-01-20T05:12:49.471Z,357.86
2023-01-20T05:13:49.465Z,358.29
2023-01-20T05:14:49.491Z,357.78
2023-01-20T05:15:49.543Z,356.46
2023-01-20T05:16:49.473Z,356.89
2023-01-20T05:17:49.473Z,358.21
2023-01-20T05:18:49.467Z,358.98
2023-01-20T05:19:49.501Z,358.96
2023-01-20T05:20:49.472Z,360.05
2023-01-20T05:21:49.478Z,359.67
2023-01-20T05:22:49.484Z,360.84
2023-01-20T05:23:49.480Z,361.68
2023-01-20T05:24:49.532Z,362.34
2023-01-20T05:25:49.487Z,362.09
2023-01-20T05:26:49.486Z,362.83
2023-01-20T05:27:49.480Z,362.59
2023-01-20T05:28:49.494Z,362.84
2023-01-20T05:29:49.516Z,363.1
2023-01-20T05:30:49.579Z,364.45
2023-01-20T05:31:49.523Z,363.94
2023-01-20T05:32:49.497Z,364.62
2023-01-20T05:33:49.494Z,364.65
2023-01-20T05:34:49.584Z,364.87
2023-01-20T05:35:53.806Z,365.31
2023-01-20T05:36:49.505Z,364.51
2023-01-20T05:37:49.503Z,365.02
2023-01-20T05:38:49.498Z,364.93
2023-01-20T05:39:49.556Z,365.17
2023-01-20T05:40:49.529Z,365.21
2023-01-20T05:41:49.504Z,365.2
2023-01-20T05:42:49.508Z,366.13
2023-01-20T05:43:49.507Z,365.87
2023-01-20T05:44:49.531Z,366.36
2023-01-20T05:45:49.529Z,366.43
2023-01-20T05:46:49.511Z,367.73
2023-01-20T05:47:49.515Z,368.18
2023-01-20T05:48:49.528Z,368.35
2023-01-20T05:49:49.551Z,369.26
2023-01-20T05:50:49.516Z,369.91
2023-01-20T05:51:49.520Z,371.7
2023-01-20T05:52:49.632Z,371.49
2023-01-20T05:53:49.538Z,373.02
2023-01-20T05:54:49.556Z,373.87
2023-01-20T05:55:49.537Z,375.2
2023-01-20T05:56:49.550Z,375.53
2023-01-20T05:57:49.537Z,375.46
2023-01-20T05:58:49.539Z,375.69
2023-01-20T05:59:49.565Z,376.99
2023-01-20T06:00:49.532Z,376.22
2023-01-20T06:01:49.545Z,377.63
2023-01-20T06:02:49.582Z,377.56
2023-01-20T06:03:49.563Z,377.71
2023-01-20T06:04:49.564Z,377.24
2023-01-20T06:05:49.541Z,376.41
2023-01-20T06:06:49.548Z,376.5
2023-01-20T06:07:49.559Z,376.53
2023-01-20T06:08:49.592Z,376.48
2023-01-20T06:09:49.573Z,377.25
2023-01-20T06:10:50.594Z,377.63
2023-01-20T06:11:49.558Z,377.79
2023-01-20T06:12:49.593Z,378.45
2023-01-20T06:13:49.554Z,377.98
2023-01-20T06:14:49.578Z,378.04
2023-01-20T06:15:49.595Z,378.32
2023-01-20T06:16:49.560Z,378.31
2023-01-20T06:17:49.593Z,378.29
2023-01-20T06:18:49.562Z,377.88
2023-01-20T06:19:49.626Z,377.27
2023-01-20T06:20:49.583Z,377.51
2023-01-20T06:21:49.575Z,377.94
2023-01-20T06:22:49.590Z,378.55
2023-01-20T06:23:49.568Z,378.37
2023-01-20T06:24:49.595Z,378.83
2023-01-20T06:25:49.641Z,378.77
2023-01-20T06:26:49.578Z,378.54
2023-01-20T06:27:49.598Z,377.5
2023-01-20T06:28:49.725Z,378.56
2023-01-20T06:29:49.626Z,379
2023-01-20T06:30:49.621Z,379.18
2023-01-20T06:31:49.623Z,379.64
2023-01-20T06:32:49.593Z,380.14
2023-01-20T06:33:49.606Z,380.59
2023-01-20T06:34:49.612Z,381.01
2023-01-20T06:35:49.597Z,380.78
2023-01-20T06:36:49.599Z,380.79
2023-01-20T06:37:49.596Z,381.25
2023-01-20T06:38:49.594Z,381.25
2023-01-20T06:39:49.639Z,381.72
2023-01-20T06:40:49.603Z,381.36
2023-01-20T06:41:49.598Z,381.15
2023-01-20T06:42:49.617Z,380.2
2023-01-20T06:43:49.610Z,380.33
2023-01-20T06:44:49.626Z,380.76
2023-01-20T06:45:49.610Z,381.41
2023-01-20T06:46:49.705Z,381.21
2023-01-20T06:47:49.617Z,381.38
2023-01-20T06:48:49.607Z,382.09
2023-01-20T06:49:49.618Z,381.73
2023-01-20T06:50:49.610Z,382.53
2023-01-20T06:51:49.620Z,382.01
2023-01-20T06:52:49.616Z,381.51
2023-01-20T06:53:49.623Z,380.45
2023-01-20T06:54:49.621Z,379.4
2023-01-20T06:55:51.554Z,380.08
2023-01-20T06:56:49.621Z,380.97
2023-01-20T06:57:49.890Z,380.48
2023-01-20T06:58:49.643Z,381.2
2023-01-20T06:59:49.631Z,382.29
2023-01-20T07:00:49.669Z,382.09
2023-01-20T07:01:49.790Z,383.24
2023-01-20T07:02:49.632Z,383.42
2023-01-20T07:03:49.640Z,384.59
2023-01-20T07:04:49.632Z,385.09
2023-01-20T07:05:49.638Z,385.24
2023-01-20T07:06:49.662Z,385.56
2023-01-20T07:07:49.691Z,385.96
2023-01-20T07:08:52.793Z,386.38
2023-01-20T07:09:49.650Z,386.57
2023-01-20T07:10:49.648Z,386.43
2023-01-20T07:11:49.649Z,387.03
2023-01-20T07:12:49.648Z,387.55
2023-01-20T07:13:49.675Z,388.13
2023-01-20T07:14:49.649Z,388.58
2023-01-20T07:15:49.661Z,389.46
2023-01-20T07:16:49.735Z,389.03
2023-01-20T07:17:49.659Z,389.54
2023-01-20T07:18:49.664Z,390.09
2023-01-20T07:19:52.556Z,389.47
2023-01-20T07:20:49.658Z,389.49
2023-01-20T07:21:49.692Z,388.01
2023-01-20T07:22:49.668Z,388.92
2023-01-20T07:23:49.670Z,388.85
2023-01-20T07:24:49.673Z,389.12
2023-01-20T07:25:49.668Z,388.47
2023-01-20T07:26:49.667Z,389.1
2023-01-20T07:27:49.676Z,388.69
2023-01-20T07:28:49.693Z,389.82
2023-01-20T07:29:49.682Z,390.22
2023-01-20T07:30:52.825Z,391.39
2023-01-20T07:31:49.711Z,391.33
2023-01-20T07:32:49.708Z,392.05
2023-01-20T07:33:49.729Z,393.15
2023-01-20T07:34:50.318Z,393.57
2023-01-20T07:35:49.685Z,392.42
2023-01-20T07:36:49.687Z,393.77
2023-01-20T07:37:49.689Z,394.66
2023-01-20T07:38:49.689Z,394.83
2023-01-20T07:39:49.745Z,394.91
2023-01-20T07:40:49.692Z,395.49
2023-01-20T07:41:49.748Z,396.15
2023-01-20T07:42:49.699Z,397.27
2023-01-20T07:43:49.706Z,397.4
2023-01-20T07:44:49.697Z,398.04
2023-01-20T07:45:49.747Z,398.49
2023-01-20T07:46:49.706Z,398.89
2023-01-20T07:47:49.717Z,399.86
2023-01-20T07:48:49.743Z,399.83
2023-01-20T07:49:49.713Z,400.93
2023-01-20T07:50:49.794Z,401.77
2023-01-20T07:51:49.718Z,401.58
2023-01-20T07:52:49.714Z,402.65
2023-01-20T07:53:49.712Z,402.63
2023-01-20T07:54:49.722Z,402.62
2023-01-20T07:55:49.727Z,402.67
2023-01-20T07:56:49.724Z,402.73
2023-01-20T07:57:49.728Z,402.68
2023-01-20T07:58:49.725Z,403.75
2023-01-20T07:59:49.723Z,405.02
2023-01-20T08:00:49.768Z,405.47
2023-01-20T08:01:49.799Z,406.09
2023-01-20T08:02:52.530Z,406.32
2023-01-20T08:03:49.725Z,406.55
2023-01-20T08:04:49.773Z,406.8
2023-01-20T08:05:49.738Z,407.64
2023-01-20T08:06:49.730Z,407.23
2023-01-20T08:07:49.747Z,408.47
2023-01-20T08:08:49.758Z,408.32
2023-01-20T08:09:49.738Z,410.03
2023-01-20T08:10:49.860Z,409.64
2023-01-20T08:11:49.764Z,410.28
2023-01-20T08:12:49.821Z,410.25
2023-01-20T08:13:52.472Z,410.29
2023-01-20T08:14:49.756Z,409.88
2023-01-20T08:15:49.752Z,410.76
2023-01-20T08:16:49.784Z,411.8
2023-01-20T08:17:49.752Z,412.66
2023-01-20T08:18:49.750Z,412.59
2023-01-20T08:19:49.761Z,413.01
2023-01-20T08:20:49.782Z,413.49
2023-01-20T08:21:49.757Z,414.55
2023-01-20T08:22:49.758Z,414.96
2023-01-20T08:23:49.765Z,416.11
2023-01-20T08:24:49.767Z,416.91
2023-01-20T08:25:49.776Z,417.39
2023-01-20T08:26:49.769Z,417.48
2023-01-20T08:27:49.773Z,418.38
2023-01-20T08:28:49.781Z,418.78
2023-01-20T08:29:49.779Z,419.41
2023-01-20T08:30:49.906Z,419.67
2023-01-20T08:31:49.910Z,419.21
2023-01-20T08:32:49.781Z,419.87
2023-01-20T08:33:49.777Z,421.11
2023-01-20T08:34:49.786Z,422.45
2023-01-20T08:35:49.811Z,423.08
2023-01-20T08:36:49.810Z,424.19
2023-01-20T08:37:49.796Z,424.76
2023-01-20T08:38:49.830Z,425.87
2023-01-20T08:39:49.782Z,426.7
2023-01-20T08:40:49.824Z,427.05
2023-01-20T08:41:49.827Z,427.55
2023-01-20T08:42:49.797Z,427.91
2023-01-20T08:43:49.809Z,428.54
2023-01-20T08:44:49.802Z,430.26
2023-01-20T08:45:50.333Z,429.45
2023-01-20T08:46:49.807Z,430.9
2023-01-20T08:47:49.794Z,431.33
2023-01-20T08:48:49.815Z,432.99
2023-01-20T08:49:49.806Z,434.38
2023-01-20T08:50:49.832Z,435.4
2023-01-20T08:51:49.800Z,435.21
2023-01-20T08:52:49.844Z,437.01
2023-01-20T08:53:49.815Z,437.27
2023-01-20T08:54:49.813Z,437.92
2023-01-20T08:55:49.916Z,439.4
2023-01-20T08:56:49.810Z,440.3
2023-01-20T08:57:49.810Z,441.07
2023-01-20T08:58:49.837Z,441.54
2023-01-20T08:59:49.826Z,441.93
2023-01-20T09:00:49.846Z,441.96
2023-01-20T09:01:49.816Z,442.37
2023-01-20T09:02:49.893Z,442.37
2023-01-20T09:04:04.169Z,443.21
2023-01-20T09:04:49.829Z,443.25
2023-01-20T09:05:49.855Z,443.23
2023-01-20T09:06:49.836Z,443.06
2023-01-20T09:07:49.833Z,444.28
2023-01-20T09:08:49.859Z,444.65
2023-01-20T09:09:49.840Z,445.37
2023-01-20T09:10:49.866Z,446.42
2023-01-20T09:11:49.843Z,446.62
2023-01-20T09:12:49.843Z,447.45
2023-01-20T09:13:49.841Z,447.87
2023-01-20T09:14:49.851Z,448.06
2023-01-20T09:15:49.903Z,448.31
2023-01-20T09:16:49.848Z,447.97
2023-01-20T09:17:49.852Z,449.01
2023-01-20T09:18:49.850Z,448.12
2023-01-20T09:19:49.855Z,449.23
2023-01-20T09:20:49.887Z,449.46
2023-01-20T09:21:49.855Z,450.69
2023-01-20T09:22:49.871Z,451.08
2023-01-20T09:23:49.855Z,450.9
2023-01-20T09:24:52.963Z,450.9
2023-01-20T09:25:49.884Z,451.57
2023-01-20T09:26:49.874Z,451.6
2023-01-20T09:27:49.865Z,451.64
2023-01-20T09:28:49.879Z,451
2023-01-20T09:29:49.865Z,451.41
2023-01-20T09:30:49.998Z,449.99
2023-01-20T09:31:49.951Z,449.81
2023-01-20T09:32:49.885Z,449.45
2023-01-20T09:33:49.915Z,448.86
2023-01-20T09:34:49.894Z,448.48
2023-01-20T09:35:50.753Z,449.14
2023-01-20T09:36:49.886Z,447.89
2023-01-20T09:37:49.880Z,447.48
2023-01-20T09:38:49.910Z,446.96
2023-01-20T09:39:49.890Z,445.75
2023-01-20T09:40:49.928Z,444.12
2023-01-20T09:41:49.909Z,442.71
2023-01-20T09:42:49.936Z,442.9
2023-01-20T09:43:49.892Z,442.92
2023-01-20T09:44:49.909Z,442.29
2023-01-20T09:45:49.888Z,443.37
2023-01-20T09:46:52.643Z,444.38
2023-01-20T09:47:49.908Z,444.39
2023-01-20T09:48:49.929Z,444.78
2023-01-20T09:49:49.895Z,445.01
2023-01-20T09:50:49.934Z,446.43
2023-01-20T09:51:49.897Z,447.28
2023-01-20T09:52:49.941Z,448.09
2023-01-20T09:53:49.915Z,448.68
2023-01-20T09:54:49.910Z,450.55
2023-01-20T09:55:49.911Z,452.24
2023-01-20T09:56:49.940Z,452.57
2023-01-20T09:57:52.785Z,453.89
2023-01-20T09:58:49.925Z,455.72
2023-01-20T09:59:49.927Z,457.69
2023-01-20T10:00:49.924Z,459.94
2023-01-20T10:01:50.016Z,462.43
2023-01-20T10:02:49.932Z,463.8
2023-01-20T10:03:49.922Z,465.69
2023-01-20T10:04:49.931Z,467.46
2023-01-20T10:05:49.922Z,469.88
2023-01-20T10:06:49.931Z,472.1
2023-01-20T10:07:49.928Z,474.32
2023-01-20T10:09:04.383Z,476.13
2023-01-20T10:09:49.927Z,478.38
2023-01-20T10:10:49.952Z,479.98
2023-01-20T10:11:49.965Z,482.6
2023-01-20T10:12:49.976Z,483.94
2023-01-20T10:13:49.934Z,485.42
2023-01-20T10:14:49.955Z,487.94
2023-01-20T10:15:49.972Z,489.77
2023-01-20T10:16:49.967Z,490.99
2023-01-20T10:17:49.950Z,492.92
2023-01-20T10:18:49.946Z,493.9
2023-01-20T10:19:49.950Z,496.03
2023-01-20T10:20:49.970Z,496.7
2023-01-20T10:21:49.946Z,497.34
2023-01-20T10:22:50.002Z,498.9
2023-01-20T10:23:49.958Z,499.98
2023-01-20T10:24:49.988Z,501.26
2023-01-20T10:25:49.964Z,503.02
2023-01-20T10:26:49.980Z,504
2023-01-20T10:27:49.963Z,505.97
2023-01-20T10:28:50.002Z,507.8
2023-01-20T10:29:53.009Z,509.76
2023-01-20T10:30:50.200Z,511.29
2023-01-20T10:31:50.110Z,512.06
2023-01-20T10:32:49.994Z,514.26
2023-01-20T10:33:49.970Z,515.28
2023-01-20T10:34:49.999Z,515.3
2023-01-20T10:35:49.963Z,515.99
2023-01-20T10:36:52.952Z,516.59
2023-01-20T10:37:49.967Z,516.75
2023-01-20T10:38:50.008Z,518.17
2023-01-20T10:39:50.102Z,518.53
2023-01-20T10:40:53.173Z,518.97
2023-01-20T10:41:49.974Z,518.68
2023-01-20T10:42:49.987Z,519.67
2023-01-20T10:43:49.984Z,520.18
2023-01-20T10:44:50.033Z,520.67
2023-01-20T10:45:49.988Z,520.36
2023-01-20T10:46:50.068Z,520.55
2023-01-20T10:47:49.989Z,520.77
2023-01-20T10:48:50.004Z,520.28
2023-01-20T10:49:49.987Z,519.77
2023-01-20T10:50:50.008Z,519.24
2023-01-20T10:51:49.989Z,518.46
2023-01-20T10:52:50.025Z,518.01
2023-01-20T10:53:50.014Z,518.09
2023-01-20T10:54:50.016Z,517.66
2023-01-20T10:55:50.008Z,517.5
2023-01-20T10:56:50.026Z,517.86
2023-01-20T10:57:50.000Z,517.72
2023-01-20T10:58:50.035Z,517.54
2023-01-20T10:59:50.005Z,518.46
2023-01-20T11:00:50.042Z,518.29
2023-01-20T11:01:56.172Z,519.69
2023-01-20T11:02:50.064Z,522.32
2023-01-20T11:03:50.021Z,523.86
2023-01-20T11:04:50.042Z,524.39
2023-01-20T11:05:50.027Z,525.56
2023-01-20T11:06:50.075Z,526.76
2023-01-20T11:07:50.021Z,528.27
2023-01-20T11:08:50.077Z,528.9
2023-01-20T11:09:50.023Z,529.99
2023-01-20T11:10:50.042Z,530.59
2023-01-20T11:11:50.045Z,531.22
2023-01-20T11:12:50.074Z,532.11
2023-01-20T11:13:50.038Z,532.33
2023-01-20T11:14:50.063Z,533.29
2023-01-20T11:15:50.074Z,533.7
2023-01-20T11:16:50.110Z,535.04
2023-01-20T11:17:50.030Z,535.83
2023-01-20T11:18:50.032Z,536.25
2023-01-20T11:19:50.040Z,536.76
2023-01-20T11:20:50.061Z,537.75
2023-01-20T11:21:50.069Z,539.09
2023-01-20T11:22:50.116Z,539.9
2023-01-20T11:23:50.049Z,540.69
2023-01-20T11:24:50.080Z,541.61
2023-01-20T11:25:50.051Z,541.73
2023-01-20T11:26:50.088Z,542.38
2023-01-20T11:27:50.081Z,542.92
2023-01-20T11:28:50.067Z,543.3
2023-01-20T11:29:50.059Z,544.23
2023-01-20T11:30:50.072Z,544.58
2023-01-20T11:31:50.178Z,546.73
2023-01-20T11:32:50.134Z,547.26
2023-01-20T11:33:50.056Z,547.32
2023-01-20T11:34:50.067Z,548.32
2023-01-20T11:35:50.060Z,549.44
2023-01-20T11:36:50.108Z,550.16
2023-01-20T11:37:50.070Z,551.29
2023-01-20T11:38:50.068Z,553.43
2023-01-20T11:39:50.077Z,554.8
2023-01-20T11:40:50.074Z,556.31
2023-01-20T11:41:50.091Z,557.37
2023-01-20T11:42:50.071Z,559.13
2023-01-20T11:43:50.077Z,560.83
2023-01-20T11:44:50.077Z,561.9
2023-01-20T11:45:50.083Z,563.48
2023-01-20T11:46:50.158Z,564.43
2023-01-20T11:47:50.079Z,565.77
2023-01-20T11:48:50.106Z,565.95
2023-01-20T11:49:50.109Z,566.49
2023-01-20T11:50:50.146Z,567.1
2023-01-20T11:51:50.270Z,568.3
2023-01-20T11:52:50.101Z,568.24
2023-01-20T11:53:50.095Z,568.22
2023-01-20T11:54:50.093Z,569.13
2023-01-20T11:55:50.109Z,568.97
2023-01-20T11:56:50.157Z,568.91
2023-01-20T11:57:50.101Z,570.25
2023-01-20T11:58:50.097Z,571.18
2023-01-20T11:59:50.102Z,571.81
2023-01-20T12:00:50.109Z,573.12
2023-01-20T12:01:50.176Z,573.49
2023-01-20T12:02:53.220Z,573.99
2023-01-20T12:03:50.165Z,574.39
2023-01-20T12:04:50.133Z,575.17
2023-01-20T12:05:50.104Z,574.61
2023-01-20T12:06:50.127Z,575.17
2023-01-20T12:07:50.123Z,576.15
2023-01-20T12:08:50.132Z,575.61
2023-01-20T12:09:50.125Z,575.63
2023-01-20T12:10:50.121Z,575.4
2023-01-20T12:11:50.140Z,574.51
2023-01-20T12:12:51.157Z,574.29
2023-01-20T12:13:52.962Z,574.67
2023-01-20T12:14:50.129Z,575.32
2023-01-20T12:15:50.124Z,574.33
2023-01-20T12:16:50.149Z,573.77
2023-01-20T12:17:50.125Z,573.86
2023-01-20T12:19:02.032Z,573.15
2023-01-20T12:19:50.160Z,573.07
2023-01-20T12:20:55.174Z,572.14
2023-01-20T12:21:50.156Z,571.71
2023-01-20T12:22:50.134Z,571.26
2023-01-20T12:23:50.162Z,570.86
2023-01-20T12:24:52.903Z,570.03
2023-01-20T12:25:50.143Z,569.56
2023-01-20T12:26:50.164Z,567.88
2023-01-20T12:27:50.142Z,566
2023-01-20T12:28:50.146Z,565.45
2023-01-20T12:29:50.147Z,564.73
2023-01-20T12:30:50.188Z,564.16
2023-01-20T12:31:50.256Z,563.18